sensor_id;sensor_type;location;lat;lon;timestamp;P1;durP1;ratioP1;P2;durP2;ratioP2
65896;SDS011;52677;50.898;10.854;2023-03-12T00:00:50;13.45;;;6.30;;
65896;SDS011;52677;50.898;10.854;2023-03-12T00:02:51;11.15;;;6.68;;
65896;SDS011;52677;50.898;10.854;2023-03-12T00:04:51;14.35;;;7.00;;
65896;SDS011;52677;50.898;10.854;2023-03-12T00:06:51;10.00;;;6.20;;
65896;SDS011;52677;50.898;10.854;2023-03-12T00:08:52;9.20;;;5.97;;
65896;SDS011;52677;50.898;10.854;2023-03-12T00:10:52;11.20;;;5.80;;
65896;SDS011;52677;50.898;10.854;2023-03-12T00:12:52;11.50;;;6.55;;
65896;SDS011;52677;50.898;10.854;2023-03-12T00:14:53;13.90;;;6.57;;
65896;SDS011;52677;50.898;10.854;2023-03-12T00:16:53;10.75;;;6.07;;
65896;SDS011;52677;50.898;10.854;2023-03-12T00:18:54;11.48;;;6.57;;
65896;SDS011;52677;50.898;10.854;2023-03-12T00:20:55;17.00;;;8.70;;
65896;SDS011;52677;50.898;10.854;2023-03-12T00:22:55;16.45;;;8.48;;
65896;SDS011;52677;50.898;10.854;2023-03-12T00:24:56;10.88;;;7.05;;
65896;SDS011;52677;50.898;10.854;2023-03-12T00:26:56;12.98;;;7.38;;
65896;SDS011;52677;50.898;10.854;2023-03-12T00:28:56;14.98;;;7.50;;
65896;SDS011;52677;50.898;10.854;2023-03-12T00:30:57;21.13;;;10.98;;
65896;SDS011;52677;50.898;10.854;2023-03-12T00:32:57;21.67;;;9.90;;
65896;SDS011;52677;50.898;10.854;2023-03-12T00:34:58;24.30;;;10.18;;
65896;SDS011;52677;50.898;10.854;2023-03-12T00:36:58;21.20;;;10.05;;
65896;SDS011;52677;50.898;10.854;2023-03-12T00:38:59;28.83;;;12.15;;
65896;SDS011;52677;50.898;10.854;2023-03-12T00:41:00;36.35;;;14.45;;
65896;SDS011;52677;50.898;10.854;2023-03-12T00:43:00;33.10;;;14.00;;
65896;SDS011;52677;50.898;10.854;2023-03-12T00:45:00;35.10;;;14.40;;
65896;SDS011;52677;50.898;10.854;2023-03-12T00:47:01;30.88;;;15.27;;
65896;SDS011;52677;50.898;10.854;2023-03-12T00:49:01;32.58;;;16.00;;
65896;SDS011;52677;50.898;10.854;2023-03-12T00:51:01;41.92;;;16.23;;
65896;SDS011;52677;50.898;10.854;2023-03-12T00:53:02;34.20;;;16.23;;
65896;SDS011;52677;50.898;10.854;2023-03-12T00:55:02;39.88;;;17.15;;
65896;SDS011;52677;50.898;10.854;2023-03-12T00:57:03;32.15;;;15.32;;
65896;SDS011;52677;50.898;10.854;2023-03-12T00:59:03;28.05;;;14.48;;
65896;SDS011;52677;50.898;10.854;2023-03-12T01:01:04;34.38;;;15.23;;
65896;SDS011;52677;50.898;10.854;2023-03-12T01:03:04;34.13;;;14.60;;
65896;SDS011;52677;50.898;10.854;2023-03-12T01:05:05;32.83;;;14.10;;
65896;SDS011;52677;50.898;10.854;2023-03-12T01:07:07;27.10;;;14.48;;
65896;SDS011;52677;50.898;10.854;2023-03-12T01:09:08;27.40;;;13.98;;
65896;SDS011;52677;50.898;10.854;2023-03-12T01:11:11;32.83;;;16.00;;
65896;SDS011;52677;50.898;10.854;2023-03-12T01:13:15;29.65;;;14.73;;
65896;SDS011;52677;50.898;10.854;2023-03-12T01:15:16;33.53;;;15.38;;
65896;SDS011;52677;50.898;10.854;2023-03-12T01:17:17;23.40;;;13.25;;
65896;SDS011;52677;50.898;10.854;2023-03-12T01:19:17;27.60;;;13.73;;
65896;SDS011;52677;50.898;10.854;2023-03-12T01:21:18;28.05;;;12.15;;
65896;SDS011;52677;50.898;10.854;2023-03-12T01:23:18;26.45;;;12.55;;
65896;SDS011;52677;50.898;10.854;2023-03-12T01:25:18;23.20;;;12.48;;
65896;SDS011;52677;50.898;10.854;2023-03-12T01:27:19;26.65;;;11.80;;
65896;SDS011;52677;50.898;10.854;2023-03-12T01:29:19;23.63;;;11.45;;
65896;SDS011;52677;50.898;10.854;2023-03-12T01:31:20;20.92;;;10.38;;
65896;SDS011;52677;50.898;10.854;2023-03-12T01:33:20;23.75;;;11.55;;
65896;SDS011;52677;50.898;10.854;2023-03-12T01:35:23;17.08;;;10.07;;
65896;SDS011;52677;50.898;10.854;2023-03-12T01:37:25;21.52;;;10.50;;
65896;SDS011;52677;50.898;10.854;2023-03-12T01:39:26;17.88;;;8.35;;
65896;SDS011;52677;50.898;10.854;2023-03-12T01:41:27;18.00;;;8.65;;
65896;SDS011;52677;50.898;10.854;2023-03-12T01:43:34;16.10;;;8.57;;
65896;SDS011;52677;50.898;10.854;2023-03-12T01:48:20;10.77;;;6.25;;
65896;SDS011;52677;50.898;10.854;2023-03-12T01:50:21;12.40;;;6.28;;
65896;SDS011;52677;50.898;10.854;2023-03-12T01:52:23;9.88;;;5.30;;
65896;SDS011;52677;50.898;10.854;2023-03-12T01:54:32;7.68;;;4.70;;
65896;SDS011;52677;50.898;10.854;2023-03-12T01:56:37;8.15;;;5.78;;
65896;SDS011;52677;50.898;10.854;2023-03-12T01:58:39;17.17;;;9.25;;
65896;SDS011;52677;50.898;10.854;2023-03-12T02:00:42;25.38;;;12.48;;
65896;SDS011;52677;50.898;10.854;2023-03-12T02:02:42;13.30;;;8.23;;
65896;SDS011;52677;50.898;10.854;2023-03-12T02:04:44;25.08;;;9.50;;
65896;SDS011;52677;50.898;10.854;2023-03-12T02:07:08;19.00;;;10.32;;
65896;SDS011;52677;50.898;10.854;2023-03-12T02:09:09;14.32;;;8.75;;
65896;SDS011;52677;50.898;10.854;2023-03-12T02:13:11;11.20;;;7.18;;
65896;SDS011;52677;50.898;10.854;2023-03-12T02:15:12;17.38;;;8.57;;
65896;SDS011;52677;50.898;10.854;2023-03-12T02:17:12;10.68;;;6.10;;
65896;SDS011;52677;50.898;10.854;2023-03-12T02:19:19;12.55;;;7.25;;
65896;SDS011;52677;50.898;10.854;2023-03-12T02:21:27;11.93;;;5.68;;
65896;SDS011;52677;50.898;10.854;2023-03-12T02:23:45;8.88;;;5.57;;
65896;SDS011;52677;50.898;10.854;2023-03-12T02:25:48;9.57;;;5.35;;
65896;SDS011;52677;50.898;10.854;2023-03-12T02:27:50;7.30;;;4.57;;
65896;SDS011;52677;50.898;10.854;2023-03-12T02:29:51;10.05;;;5.40;;
65896;SDS011;52677;50.898;10.854;2023-03-12T02:31:52;10.38;;;5.55;;
65896;SDS011;52677;50.898;10.854;2023-03-12T02:33:56;7.45;;;5.03;;
65896;SDS011;52677;50.898;10.854;2023-03-12T02:35:57;8.73;;;4.53;;
65896;SDS011;52677;50.898;10.854;2023-03-12T02:37:57;9.73;;;4.55;;
65896;SDS011;52677;50.898;10.854;2023-03-12T02:40:21;11.25;;;4.70;;
65896;SDS011;52677;50.898;10.854;2023-03-12T02:42:35;10.15;;;4.90;;
65896;SDS011;52677;50.898;10.854;2023-03-12T02:44:36;6.78;;;4.65;;
65896;SDS011;52677;50.898;10.854;2023-03-12T02:46:38;9.70;;;3.85;;
65896;SDS011;52677;50.898;10.854;2023-03-12T02:48:41;6.88;;;4.47;;
65896;SDS011;52677;50.898;10.854;2023-03-12T02:50:41;7.68;;;4.88;;
65896;SDS011;52677;50.898;10.854;2023-03-12T02:52:42;8.63;;;4.88;;
65896;SDS011;52677;50.898;10.854;2023-03-12T02:54:42;9.02;;;4.68;;
65896;SDS011;52677;50.898;10.854;2023-03-12T02:56:43;8.60;;;4.55;;
65896;SDS011;52677;50.898;10.854;2023-03-12T02:58:43;7.63;;;4.28;;
65896;SDS011;52677;50.898;10.854;2023-03-12T03:00:43;7.40;;;3.85;;
65896;SDS011;52677;50.898;10.854;2023-03-12T03:02:44;8.10;;;4.32;;
65896;SDS011;52677;50.898;10.854;2023-03-12T03:04:44;9.02;;;3.97;;
65896;SDS011;52677;50.898;10.854;2023-03-12T03:06:44;6.22;;;3.58;;
65896;SDS011;52677;50.898;10.854;2023-03-12T03:08:47;8.00;;;3.88;;
65896;SDS011;52677;50.898;10.854;2023-03-12T03:10:49;7.57;;;4.00;;
65896;SDS011;52677;50.898;10.854;2023-03-12T03:14:50;4.80;;;3.15;;
65896;SDS011;52677;50.898;10.854;2023-03-12T03:16:50;6.85;;;3.60;;
65896;SDS011;52677;50.898;10.854;2023-03-12T03:18:51;6.88;;;3.85;;
65896;SDS011;52677;50.898;10.854;2023-03-12T03:20:55;4.88;;;3.08;;
65896;SDS011;52677;50.898;10.854;2023-03-12T03:22:59;6.45;;;3.40;;
65896;SDS011;52677;50.898;10.854;2023-03-12T03:24:59;5.85;;;3.42;;
65896;SDS011;52677;50.898;10.854;2023-03-12T03:27:00;6.10;;;3.72;;
65896;SDS011;52677;50.898;10.854;2023-03-12T03:29:00;7.13;;;3.17;;
65896;SDS011;52677;50.898;10.854;2023-03-12T03:31:01;5.57;;;3.47;;
65896;SDS011;52677;50.898;10.854;2023-03-12T03:33:01;6.30;;;3.83;;
65896;SDS011;52677;50.898;10.854;2023-03-12T03:35:01;7.72;;;3.50;;
65896;SDS011;52677;50.898;10.854;2023-03-12T03:37:02;11.27;;;3.70;;
65896;SDS011;52677;50.898;10.854;2023-03-12T03:39:02;9.02;;;4.15;;
65896;SDS011;52677;50.898;10.854;2023-03-12T03:41:04;8.10;;;4.25;;
65896;SDS011;52677;50.898;10.854;2023-03-12T03:43:04;6.00;;;3.60;;
65896;SDS011;52677;50.898;10.854;2023-03-12T03:45:05;4.88;;;3.40;;
65896;SDS011;52677;50.898;10.854;2023-03-12T03:47:06;5.50;;;3.15;;
65896;SDS011;52677;50.898;10.854;2023-03-12T03:49:06;5.07;;;3.10;;
65896;SDS011;52677;50.898;10.854;2023-03-12T03:51:07;4.78;;;3.22;;
65896;SDS011;52677;50.898;10.854;2023-03-12T03:53:09;6.55;;;3.40;;
65896;SDS011;52677;50.898;10.854;2023-03-12T03:55:09;6.80;;;3.47;;
65896;SDS011;52677;50.898;10.854;2023-03-12T03:57:09;6.50;;;4.10;;
65896;SDS011;52677;50.898;10.854;2023-03-12T03:59:10;5.38;;;3.30;;
65896;SDS011;52677;50.898;10.854;2023-03-12T04:01:11;7.38;;;3.33;;
65896;SDS011;52677;50.898;10.854;2023-03-12T04:03:12;5.95;;;3.80;;
65896;SDS011;52677;50.898;10.854;2023-03-12T04:05:13;4.88;;;3.28;;
65896;SDS011;52677;50.898;10.854;2023-03-12T04:07:15;5.57;;;3.20;;
65896;SDS011;52677;50.898;10.854;2023-03-12T04:09:15;5.82;;;2.97;;
65896;SDS011;52677;50.898;10.854;2023-03-12T04:11:16;10.77;;;4.07;;
65896;SDS011;52677;50.898;10.854;2023-03-12T04:13:19;5.22;;;3.13;;
65896;SDS011;52677;50.898;10.854;2023-03-12T04:15:19;4.38;;;2.78;;
65896;SDS011;52677;50.898;10.854;2023-03-12T04:17:20;4.97;;;3.20;;
65896;SDS011;52677;50.898;10.854;2023-03-12T04:19:21;5.80;;;2.80;;
65896;SDS011;52677;50.898;10.854;2023-03-12T04:21:21;5.43;;;2.78;;
65896;SDS011;52677;50.898;10.854;2023-03-12T04:23:22;4.65;;;2.90;;
65896;SDS011;52677;50.898;10.854;2023-03-12T04:25:22;5.57;;;2.80;;
65896;SDS011;52677;50.898;10.854;2023-03-12T04:27:23;7.70;;;3.33;;
65896;SDS011;52677;50.898;10.854;2023-03-12T04:29:23;6.13;;;2.97;;
65896;SDS011;52677;50.898;10.854;2023-03-12T04:31:24;4.85;;;2.75;;
65896;SDS011;52677;50.898;10.854;2023-03-12T04:33:25;5.93;;;2.70;;
65896;SDS011;52677;50.898;10.854;2023-03-12T04:35:29;4.40;;;2.78;;
65896;SDS011;52677;50.898;10.854;2023-03-12T04:37:31;6.13;;;2.83;;
65896;SDS011;52677;50.898;10.854;2023-03-12T04:39:32;5.10;;;2.70;;
65896;SDS011;52677;50.898;10.854;2023-03-12T04:41:33;3.25;;;2.65;;
65896;SDS011;52677;50.898;10.854;2023-03-12T04:43:34;4.50;;;2.70;;
65896;SDS011;52677;50.898;10.854;2023-03-12T04:45:35;4.03;;;2.55;;
65896;SDS011;52677;50.898;10.854;2023-03-12T04:47:36;3.20;;;2.05;;
65896;SDS011;52677;50.898;10.854;2023-03-12T04:49:37;3.00;;;2.47;;
65896;SDS011;52677;50.898;10.854;2023-03-12T04:51:38;5.47;;;2.80;;
65896;SDS011;52677;50.898;10.854;2023-03-12T04:53:38;5.70;;;3.40;;
65896;SDS011;52677;50.898;10.854;2023-03-12T04:55:39;9.88;;;3.58;;
65896;SDS011;52677;50.898;10.854;2023-03-12T04:57:39;8.57;;;3.80;;
65896;SDS011;52677;50.898;10.854;2023-03-12T04:59:40;7.22;;;3.72;;
65896;SDS011;52677;50.898;10.854;2023-03-12T05:01:40;10.32;;;3.50;;
65896;SDS011;52677;50.898;10.854;2023-03-12T05:03:41;6.47;;;3.35;;
65896;SDS011;52677;50.898;10.854;2023-03-12T05:05:41;6.28;;;3.78;;
65896;SDS011;52677;50.898;10.854;2023-03-12T05:07:42;6.22;;;3.15;;
65896;SDS011;52677;50.898;10.854;2023-03-12T05:09:42;7.93;;;3.55;;
65896;SDS011;52677;50.898;10.854;2023-03-12T05:11:43;5.65;;;3.60;;
65896;SDS011;52677;50.898;10.854;2023-03-12T05:13:43;5.60;;;3.17;;
65896;SDS011;52677;50.898;10.854;2023-03-12T05:15:44;4.95;;;2.83;;
65896;SDS011;52677;50.898;10.854;2023-03-12T05:17:46;5.68;;;2.92;;
65896;SDS011;52677;50.898;10.854;2023-03-12T05:19:46;5.45;;;2.95;;
65896;SDS011;52677;50.898;10.854;2023-03-12T05:21:47;5.65;;;2.92;;
65896;SDS011;52677;50.898;10.854;2023-03-12T05:23:47;6.18;;;3.10;;
65896;SDS011;52677;50.898;10.854;2023-03-12T05:25:47;5.03;;;2.78;;
65896;SDS011;52677;50.898;10.854;2023-03-12T05:27:48;9.38;;;2.65;;
65896;SDS011;52677;50.898;10.854;2023-03-12T05:29:48;3.17;;;2.63;;
65896;SDS011;52677;50.898;10.854;2023-03-12T05:31:48;5.10;;;3.17;;
65896;SDS011;52677;50.898;10.854;2023-03-12T05:33:49;4.03;;;2.75;;
65896;SDS011;52677;50.898;10.854;2023-03-12T05:35:49;5.90;;;2.38;;
65896;SDS011;52677;50.898;10.854;2023-03-12T05:37:49;4.95;;;2.50;;
65896;SDS011;52677;50.898;10.854;2023-03-12T05:39:51;6.18;;;3.33;;
65896;SDS011;52677;50.898;10.854;2023-03-12T05:41:53;5.10;;;2.40;;
65896;SDS011;52677;50.898;10.854;2023-03-12T05:43:56;5.32;;;2.92;;
65896;SDS011;52677;50.898;10.854;2023-03-12T05:45:58;4.70;;;2.65;;
65896;SDS011;52677;50.898;10.854;2023-03-12T05:48:02;7.43;;;3.22;;
65896;SDS011;52677;50.898;10.854;2023-03-12T05:50:03;4.45;;;2.78;;
65896;SDS011;52677;50.898;10.854;2023-03-12T05:52:03;7.22;;;3.80;;
65896;SDS011;52677;50.898;10.854;2023-03-12T05:54:04;7.40;;;3.47;;
65896;SDS011;52677;50.898;10.854;2023-03-12T05:56:06;7.78;;;4.22;;
65896;SDS011;52677;50.898;10.854;2023-03-12T05:58:08;11.35;;;5.85;;
65896;SDS011;52677;50.898;10.854;2023-03-12T06:00:09;12.63;;;5.90;;
65896;SDS011;52677;50.898;10.854;2023-03-12T06:02:12;10.68;;;5.50;;
65896;SDS011;52677;50.898;10.854;2023-03-12T06:04:12;15.55;;;5.72;;
65896;SDS011;52677;50.898;10.854;2023-03-12T06:06:13;12.20;;;5.57;;
65896;SDS011;52677;50.898;10.854;2023-03-12T06:08:14;11.70;;;4.80;;
65896;SDS011;52677;50.898;10.854;2023-03-12T06:10:14;10.50;;;4.88;;
65896;SDS011;52677;50.898;10.854;2023-03-12T06:12:15;8.82;;;3.85;;
65896;SDS011;52677;50.898;10.854;2023-03-12T06:14:15;7.03;;;3.38;;
65896;SDS011;52677;50.898;10.854;2023-03-12T06:16:19;6.20;;;3.28;;
65896;SDS011;52677;50.898;10.854;2023-03-12T06:18:22;7.15;;;3.50;;
65896;SDS011;52677;50.898;10.854;2023-03-12T06:20:22;8.05;;;3.20;;
65896;SDS011;52677;50.898;10.854;2023-03-12T06:22:23;4.38;;;3.03;;
65896;SDS011;52677;50.898;10.854;2023-03-12T06:24:24;6.28;;;3.13;;
65896;SDS011;52677;50.898;10.854;2023-03-12T06:26:25;4.38;;;2.67;;
65896;SDS011;52677;50.898;10.854;2023-03-12T06:28:26;6.40;;;3.00;;
65896;SDS011;52677;50.898;10.854;2023-03-12T06:30:26;3.30;;;2.10;;
65896;SDS011;52677;50.898;10.854;2023-03-12T06:32:27;4.38;;;2.60;;
65896;SDS011;52677;50.898;10.854;2023-03-12T06:34:27;4.13;;;2.60;;
65896;SDS011;52677;50.898;10.854;2023-03-12T06:36:27;5.13;;;2.67;;
65896;SDS011;52677;50.898;10.854;2023-03-12T06:38:28;6.93;;;2.95;;
65896;SDS011;52677;50.898;10.854;2023-03-12T06:40:28;3.53;;;2.38;;
65896;SDS011;52677;50.898;10.854;2023-03-12T06:42:29;4.38;;;2.75;;
65896;SDS011;52677;50.898;10.854;2023-03-12T06:44:29;4.78;;;2.20;;
65896;SDS011;52677;50.898;10.854;2023-03-12T06:46:31;4.53;;;2.50;;
65896;SDS011;52677;50.898;10.854;2023-03-12T06:48:32;4.53;;;3.00;;
65896;SDS011;52677;50.898;10.854;2023-03-12T06:50:35;4.05;;;2.60;;
65896;SDS011;52677;50.898;10.854;2023-03-12T06:52:35;5.20;;;2.60;;
65896;SDS011;52677;50.898;10.854;2023-03-12T06:54:36;5.13;;;2.55;;
65896;SDS011;52677;50.898;10.854;2023-03-12T06:56:36;7.72;;;2.85;;
65896;SDS011;52677;50.898;10.854;2023-03-12T06:58:37;4.90;;;2.72;;
65896;SDS011;52677;50.898;10.854;2023-03-12T07:00:37;5.18;;;2.70;;
65896;SDS011;52677;50.898;10.854;2023-03-12T07:02:38;3.90;;;2.50;;
65896;SDS011;52677;50.898;10.854;2023-03-12T07:04:38;6.28;;;3.30;;
65896;SDS011;52677;50.898;10.854;2023-03-12T07:06:38;3.90;;;2.88;;
65896;SDS011;52677;50.898;10.854;2023-03-12T07:08:39;4.47;;;2.85;;
65896;SDS011;52677;50.898;10.854;2023-03-12T07:10:39;5.32;;;3.10;;
65896;SDS011;52677;50.898;10.854;2023-03-12T07:12:40;4.78;;;2.90;;
65896;SDS011;52677;50.898;10.854;2023-03-12T07:14:40;4.10;;;2.50;;
65896;SDS011;52677;50.898;10.854;2023-03-12T07:16:40;4.35;;;3.17;;
65896;SDS011;52677;50.898;10.854;2023-03-12T07:18:41;2.97;;;2.42;;
65896;SDS011;52677;50.898;10.854;2023-03-12T07:20:42;6.05;;;2.30;;
65896;SDS011;52677;50.898;10.854;2023-03-12T07:22:43;3.45;;;2.53;;
65896;SDS011;52677;50.898;10.854;2023-03-12T07:24:43;4.20;;;2.70;;
65896;SDS011;52677;50.898;10.854;2023-03-12T07:26:44;6.15;;;2.53;;
65896;SDS011;52677;50.898;10.854;2023-03-12T07:28:45;8.63;;;2.88;;
65896;SDS011;52677;50.898;10.854;2023-03-12T07:30:45;4.38;;;2.90;;
65896;SDS011;52677;50.898;10.854;2023-03-12T07:32:52;2.97;;;2.50;;
65896;SDS011;52677;50.898;10.854;2023-03-12T07:34:52;5.05;;;2.78;;
65896;SDS011;52677;50.898;10.854;2023-03-12T07:36:52;3.15;;;2.50;;
65896;SDS011;52677;50.898;10.854;2023-03-12T07:38:53;5.75;;;2.47;;
65896;SDS011;52677;50.898;10.854;2023-03-12T07:40:55;3.90;;;2.50;;
65896;SDS011;52677;50.898;10.854;2023-03-12T07:42:57;5.85;;;2.45;;
65896;SDS011;52677;50.898;10.854;2023-03-12T07:44:57;4.38;;;2.80;;
65896;SDS011;52677;50.898;10.854;2023-03-12T07:46:57;5.85;;;3.05;;
65896;SDS011;52677;50.898;10.854;2023-03-12T07:48:58;4.03;;;2.38;;
65896;SDS011;52677;50.898;10.854;2023-03-12T07:50:59;7.45;;;3.20;;
65896;SDS011;52677;50.898;10.854;2023-03-12T07:53:00;6.43;;;2.58;;
65896;SDS011;52677;50.898;10.854;2023-03-12T07:55:00;6.03;;;3.03;;
65896;SDS011;52677;50.898;10.854;2023-03-12T07:57:01;4.65;;;2.40;;
65896;SDS011;52677;50.898;10.854;2023-03-12T07:59:01;4.05;;;2.28;;
65896;SDS011;52677;50.898;10.854;2023-03-12T08:01:01;5.95;;;3.45;;
65896;SDS011;52677;50.898;10.854;2023-03-12T08:03:02;7.53;;;3.30;;
65896;SDS011;52677;50.898;10.854;2023-03-12T08:05:02;10.48;;;3.53;;
65896;SDS011;52677;50.898;10.854;2023-03-12T08:07:03;6.47;;;3.50;;
65896;SDS011;52677;50.898;10.854;2023-03-12T08:09:03;5.53;;;3.33;;
65896;SDS011;52677;50.898;10.854;2023-03-12T08:11:04;5.80;;;2.90;;
65896;SDS011;52677;50.898;10.854;2023-03-12T08:13:04;5.25;;;3.42;;
65896;SDS011;52677;50.898;10.854;2023-03-12T08:15:05;6.47;;;3.50;;
65896;SDS011;52677;50.898;10.854;2023-03-12T08:17:07;9.05;;;3.38;;
65896;SDS011;52677;50.898;10.854;2023-03-12T08:19:08;5.57;;;2.70;;
65896;SDS011;52677;50.898;10.854;2023-03-12T08:21:08;6.25;;;3.22;;
65896;SDS011;52677;50.898;10.854;2023-03-12T08:23:08;5.72;;;3.25;;
65896;SDS011;52677;50.898;10.854;2023-03-12T08:25:09;5.78;;;2.90;;
65896;SDS011;52677;50.898;10.854;2023-03-12T08:27:09;5.72;;;3.28;;
65896;SDS011;52677;50.898;10.854;2023-03-12T08:29:14;6.57;;;3.22;;
65896;SDS011;52677;50.898;10.854;2023-03-12T08:31:14;4.97;;;2.70;;
65896;SDS011;52677;50.898;10.854;2023-03-12T08:33:15;4.55;;;2.60;;
65896;SDS011;52677;50.898;10.854;2023-03-12T08:35:15;5.43;;;2.83;;
65896;SDS011;52677;50.898;10.854;2023-03-12T08:37:16;4.15;;;2.75;;
65896;SDS011;52677;50.898;10.854;2023-03-12T08:39:16;6.15;;;2.83;;
65896;SDS011;52677;50.898;10.854;2023-03-12T08:41:17;6.00;;;2.58;;
65896;SDS011;52677;50.898;10.854;2023-03-12T08:43:17;3.58;;;2.67;;
65896;SDS011;52677;50.898;10.854;2023-03-12T08:45:17;4.32;;;2.30;;
65896;SDS011;52677;50.898;10.854;2023-03-12T08:47:18;6.53;;;2.80;;
65896;SDS011;52677;50.898;10.854;2023-03-12T08:49:18;5.13;;;2.83;;
65896;SDS011;52677;50.898;10.854;2023-03-12T08:51:20;5.13;;;2.80;;
65896;SDS011;52677;50.898;10.854;2023-03-12T08:53:21;3.80;;;2.70;;
65896;SDS011;52677;50.898;10.854;2023-03-12T08:55:21;4.10;;;2.60;;
65896;SDS011;52677;50.898;10.854;2023-03-12T08:57:22;5.00;;;2.47;;
65896;SDS011;52677;50.898;10.854;2023-03-12T08:59:22;4.78;;;2.15;;
65896;SDS011;52677;50.898;10.854;2023-03-12T09:01:23;3.20;;;2.20;;
65896;SDS011;52677;50.898;10.854;2023-03-12T09:03:23;2.90;;;2.08;;
65896;SDS011;52677;50.898;10.854;2023-03-12T09:05:24;7.68;;;2.67;;
65896;SDS011;52677;50.898;10.854;2023-03-12T09:07:31;3.80;;;2.28;;
65896;SDS011;52677;50.898;10.854;2023-03-12T09:09:32;3.28;;;2.22;;
65896;SDS011;52677;50.898;10.854;2023-03-12T09:11:33;4.90;;;2.25;;
65896;SDS011;52677;50.898;10.854;2023-03-12T09:13:35;3.67;;;2.22;;
65896;SDS011;52677;50.898;10.854;2023-03-12T09:15:35;3.60;;;2.15;;
65896;SDS011;52677;50.898;10.854;2023-03-12T09:17:36;3.05;;;2.22;;
65896;SDS011;52677;50.898;10.854;2023-03-12T09:19:36;6.35;;;2.53;;
65896;SDS011;52677;50.898;10.854;2023-03-12T09:21:37;2.53;;;1.92;;
65896;SDS011;52677;50.898;10.854;2023-03-12T09:23:38;5.00;;;2.73;;
65896;SDS011;52677;50.898;10.854;2023-03-12T09:25:39;4.78;;;2.05;;
65896;SDS011;52677;50.898;10.854;2023-03-12T09:27:45;8.75;;;3.28;;
65896;SDS011;52677;50.898;10.854;2023-03-12T09:29:46;4.22;;;2.75;;
65896;SDS011;52677;50.898;10.854;2023-03-12T09:31:48;4.50;;;2.70;;
65896;SDS011;52677;50.898;10.854;2023-03-12T09:33:48;4.70;;;2.28;;
65896;SDS011;52677;50.898;10.854;2023-03-12T09:35:54;3.67;;;2.17;;
65896;SDS011;52677;50.898;10.854;2023-03-12T09:37:56;2.90;;;2.03;;
65896;SDS011;52677;50.898;10.854;2023-03-12T09:39:57;4.35;;;2.13;;
65896;SDS011;52677;50.898;10.854;2023-03-12T09:41:57;5.20;;;2.20;;
65896;SDS011;52677;50.898;10.854;2023-03-12T09:46:29;3.53;;;2.00;;
65896;SDS011;52677;50.898;10.854;2023-03-12T09:48:36;6.38;;;2.45;;
65896;SDS011;52677;50.898;10.854;2023-03-12T09:50:38;4.85;;;2.10;;
65896;SDS011;52677;50.898;10.854;2023-03-12T09:52:52;6.28;;;2.50;;
65896;SDS011;52677;50.898;10.854;2023-03-12T09:55:05;8.45;;;2.60;;
65896;SDS011;52677;50.898;10.854;2023-03-12T09:57:16;3.58;;;2.03;;
65896;SDS011;52677;50.898;10.854;2023-03-12T09:59:22;8.52;;;2.72;;
65896;SDS011;52677;50.898;10.854;2023-03-12T10:01:36;5.20;;;2.22;;
65896;SDS011;52677;50.898;10.854;2023-03-12T10:13:14;4.22;;;1.98;;
65896;SDS011;52677;50.898;10.854;2023-03-12T10:16:09;4.25;;;2.10;;
65896;SDS011;52677;50.898;10.854;2023-03-12T10:25:10;3.92;;;2.00;;
65896;SDS011;52677;50.898;10.854;2023-03-12T10:27:18;5.25;;;2.33;;
65896;SDS011;52677;50.898;10.854;2023-03-12T10:29:27;3.92;;;2.58;;
65896;SDS011;52677;50.898;10.854;2023-03-12T10:31:35;3.45;;;2.40;;
65896;SDS011;52677;50.898;10.854;2023-03-12T10:33:45;6.63;;;3.55;;
65896;SDS011;52677;50.898;10.854;2023-03-12T10:35:48;6.78;;;3.72;;
65896;SDS011;52677;50.898;10.854;2023-03-12T10:37:59;4.82;;;2.30;;
65896;SDS011;52677;50.898;10.854;2023-03-12T10:40:01;3.83;;;2.20;;
65896;SDS011;52677;50.898;10.854;2023-03-12T10:42:11;6.38;;;2.15;;
65896;SDS011;52677;50.898;10.854;2023-03-12T10:44:16;4.13;;;2.35;;
65896;SDS011;52677;50.898;10.854;2023-03-12T10:46:37;6.80;;;2.40;;
65896;SDS011;52677;50.898;10.854;2023-03-12T10:48:50;11.32;;;3.15;;
65896;SDS011;52677;50.898;10.854;2023-03-12T10:55:33;4.07;;;2.28;;
65896;SDS011;52677;50.898;10.854;2023-03-12T10:57:38;5.10;;;3.20;;
65896;SDS011;52677;50.898;10.854;2023-03-12T10:59:40;7.43;;;2.97;;
65896;SDS011;52677;50.898;10.854;2023-03-12T11:01:46;9.85;;;4.00;;
65896;SDS011;52677;50.898;10.854;2023-03-12T11:03:50;5.50;;;3.47;;
65896;SDS011;52677;50.898;10.854;2023-03-12T11:05:54;13.15;;;3.70;;
65896;SDS011;52677;50.898;10.854;2023-03-12T11:07:57;8.52;;;4.65;;
65896;SDS011;52677;50.898;10.854;2023-03-12T11:12:21;8.60;;;4.43;;
65896;SDS011;52677;50.898;10.854;2023-03-12T11:14:27;5.10;;;3.35;;
65896;SDS011;52677;50.898;10.854;2023-03-12T11:16:29;6.13;;;3.90;;
65896;SDS011;52677;50.898;10.854;2023-03-12T11:18:31;4.43;;;3.45;;
65896;SDS011;52677;50.898;10.854;2023-03-12T11:20:33;6.82;;;3.25;;
65896;SDS011;52677;50.898;10.854;2023-03-12T11:22:33;6.85;;;2.83;;
65896;SDS011;52677;50.898;10.854;2023-03-12T11:24:34;13.98;;;3.05;;
65896;SDS011;52677;50.898;10.854;2023-03-12T11:33:23;6.40;;;3.00;;
65896;SDS011;52677;50.898;10.854;2023-03-12T11:35:28;6.60;;;2.72;;
65896;SDS011;52677;50.898;10.854;2023-03-12T11:49:46;8.63;;;2.67;;
65896;SDS011;52677;50.898;10.854;2023-03-12T11:54:45;5.03;;;2.78;;
65896;SDS011;52677;50.898;10.854;2023-03-12T11:56:50;3.83;;;2.50;;
65896;SDS011;52677;50.898;10.854;2023-03-12T11:59:09;7.70;;;3.03;;
65896;SDS011;52677;50.898;10.854;2023-03-12T12:01:33;3.92;;;2.67;;
65896;SDS011;52677;50.898;10.854;2023-03-12T12:05:48;4.13;;;2.50;;
65896;SDS011;52677;50.898;10.854;2023-03-12T12:08:07;5.05;;;2.58;;
65896;SDS011;52677;50.898;10.854;2023-03-12T12:19:19;6.82;;;3.00;;
65896;SDS011;52677;50.898;10.854;2023-03-12T12:21:33;7.10;;;4.40;;
65896;SDS011;52677;50.898;10.854;2023-03-12T12:24:11;5.75;;;5.13;;
65896;SDS011;52677;50.898;10.854;2023-03-12T12:26:13;3.78;;;2.70;;
65896;SDS011;52677;50.898;10.854;2023-03-12T12:35:36;5.35;;;2.78;;
65896;SDS011;52677;50.898;10.854;2023-03-12T12:37:50;3.25;;;2.10;;
65896;SDS011;52677;50.898;10.854;2023-03-12T12:40:04;4.35;;;2.40;;
65896;SDS011;52677;50.898;10.854;2023-03-12T12:42:12;4.20;;;2.25;;
65896;SDS011;52677;50.898;10.854;2023-03-12T12:44:23;3.17;;;2.30;;
65896;SDS011;52677;50.898;10.854;2023-03-12T12:46:33;2.97;;;2.20;;
65896;SDS011;52677;50.898;10.854;2023-03-12T12:50:39;5.65;;;1.98;;
65896;SDS011;52677;50.898;10.854;2023-03-12T12:52:41;3.28;;;2.38;;
65896;SDS011;52677;50.898;10.854;2023-03-12T12:54:57;3.17;;;1.90;;
65896;SDS011;52677;50.898;10.854;2023-03-12T12:57:03;5.03;;;2.72;;
65896;SDS011;52677;50.898;10.854;2023-03-12T13:01:33;3.90;;;2.38;;
65896;SDS011;52677;50.898;10.854;2023-03-12T13:07:37;2.60;;;1.63;;
65896;SDS011;52677;50.898;10.854;2023-03-12T13:09:41;3.22;;;2.10;;
65896;SDS011;52677;50.898;10.854;2023-03-12T13:11:57;3.55;;;2.22;;
65896;SDS011;52677;50.898;10.854;2023-03-12T13:18:29;4.15;;;2.40;;
65896;SDS011;52677;50.898;10.854;2023-03-12T13:20:31;2.65;;;2.00;;
65896;SDS011;52677;50.898;10.854;2023-03-12T13:27:25;3.15;;;1.98;;
65896;SDS011;52677;50.898;10.854;2023-03-12T13:35:41;4.03;;;2.42;;
65896;SDS011;52677;50.898;10.854;2023-03-12T13:39:50;2.58;;;1.40;;
65896;SDS011;52677;50.898;10.854;2023-03-12T13:41:53;1.40;;;1.15;;
65896;SDS011;52677;50.898;10.854;2023-03-12T13:43:55;3.00;;;1.73;;